createdAt,value
2022-10-12T00:03:14.174Z,4.89
2022-10-12T00:08:21.191Z,4.97
2022-10-12T00:13:28.058Z,4.60
2022-10-12T00:18:38.132Z,4.55
2022-10-12T00:23:46.981Z,4.66
2022-10-12T00:28:58.688Z,4.37
2022-10-12T00:34:06.717Z,4.59
2022-10-12T00:39:13.590Z,4.68
2022-10-12T00:44:43.641Z,4.39
2022-10-12T00:49:57.993Z,4.68
2022-10-12T00:55:06.427Z,4.68
2022-10-12T01:00:15.118Z,4.13
2022-10-12T01:05:24.618Z,3.92
2022-10-12T01:10:35.085Z,4.25
2022-10-12T01:15:49.249Z,4.11
2022-10-12T01:21:23.060Z,3.62
2022-10-12T01:27:18.262Z,3.68
2022-10-12T01:32:32.599Z,3.94
2022-10-12T01:37:50.702Z,3.38
2022-10-12T01:42:57.688Z,3.23
2022-10-12T01:48:06.426Z,3.74
2022-10-12T01:53:29.635Z,4.02
2022-10-12T01:58:56.577Z,4.08
2022-10-12T02:04:12.711Z,3.97
2022-10-12T02:09:27.730Z,3.84
2022-10-12T02:14:40.173Z,3.89
2022-10-12T02:19:52.640Z,3.97
2022-10-12T02:25:01.636Z,3.94
2022-10-12T02:30:13.199Z,3.86
2022-10-12T02:35:29.448Z,3.82
2022-10-12T02:40:40.117Z,3.69
2022-10-12T02:45:49.876Z,3.54
2022-10-12T02:51:00.729Z,3.64
2022-10-12T02:56:09.482Z,3.72
2022-10-12T03:01:17.354Z,3.85
2022-10-12T03:06:25.330Z,3.81
2022-10-12T03:11:31.351Z,3.59
2022-10-12T03:16:37.565Z,3.72
2022-10-12T03:21:44.924Z,3.74
2022-10-12T03:31:59.188Z,3.48
2022-10-12T03:37:06.487Z,3.63
2022-10-12T03:42:12.251Z,3.41
2022-10-12T03:47:22.106Z,3.53
2022-10-12T03:52:30.343Z,3.26
2022-10-12T03:57:37.275Z,3.20
2022-10-12T04:02:43.595Z,3.31
2022-10-12T04:07:50.890Z,3.31
2022-10-12T04:12:56.793Z,3.33
2022-10-12T04:18:02.751Z,2.91
2022-10-12T04:23:10.200Z,2.93
2022-10-12T04:28:17.080Z,2.84
2022-10-12T04:33:23.142Z,2.92
2022-10-12T04:38:30.537Z,3.09
2022-10-12T04:43:36.374Z,3.12
2022-10-12T04:48:42.336Z,3.11
2022-10-12T04:53:49.785Z,3.00
2022-10-12T05:07:07.562Z,2.77
2022-10-12T05:13:05.211Z,2.57
2022-10-12T05:18:36.072Z,2.59
2022-10-12T05:23:43.802Z,2.70
2022-10-12T05:28:52.310Z,2.71
2022-10-12T05:34:47.869Z,2.90
2022-10-12T05:40:20.852Z,2.97
2022-10-12T05:45:54.064Z,2.96
2022-10-12T05:51:29.170Z,2.90
2022-10-12T05:57:06.736Z,2.99
2022-10-12T06:02:17.635Z,2.85
2022-10-12T06:08:13.880Z,2.99
2022-10-12T06:13:47.814Z,3.01
2022-10-12T06:19:24.289Z,3.06
2022-10-12T06:24:57.209Z,3.10
2022-10-12T06:30:04.292Z,3.15
2022-10-12T06:35:13.522Z,3.36
2022-10-12T06:41:39.488Z,3.50
2022-10-12T06:54:01.783Z,3.79
2022-10-12T06:59:13.186Z,3.91
2022-10-12T07:04:19.780Z,3.96
2022-10-12T07:09:32.160Z,4.05
2022-10-12T07:14:42.180Z,4.15
2022-10-12T07:20:18.120Z,4.30
2022-10-12T07:25:28.092Z,4.38
2022-10-12T07:31:03.556Z,4.54
2022-10-12T07:36:14.731Z,4.66
2022-10-12T07:41:25.840Z,4.79
2022-10-12T07:46:32.622Z,5.02
2022-10-12T07:51:46.690Z,5.16
2022-10-12T07:58:09.055Z,5.38
2022-10-12T08:03:42.074Z,5.47
2022-10-12T08:08:48.941Z,5.55
2022-10-12T08:13:56.352Z,5.80
2022-10-12T08:19:06.521Z,5.93
2022-10-12T08:24:18.024Z,6.08
2022-10-12T08:29:28.493Z,6.23
2022-10-12T08:35:29.376Z,6.52
2022-10-12T08:41:08.911Z,6.71
2022-10-12T08:53:59.369Z,7.16
2022-10-12T08:59:31.564Z,7.36
2022-10-12T09:05:05.724Z,7.50
2022-10-12T09:10:46.399Z,7.64
2022-10-12T09:16:01.670Z,7.70
2022-10-12T09:21:15.409Z,7.79
2022-10-12T09:27:18.519Z,8.02
2022-10-12T09:32:54.204Z,8.25
2022-10-12T09:38:26.106Z,8.34
2022-10-12T09:43:34.301Z,8.41
2022-10-12T09:48:57.291Z,8.47
2022-10-12T09:54:08.781Z,8.69
2022-10-12T10:00:34.650Z,8.82
2022-10-12T10:06:32.830Z,8.91
2022-10-12T10:12:15.746Z,9.02
2022-10-12T10:17:28.995Z,9.13
2022-10-12T10:22:37.251Z,9.15
2022-10-12T10:28:24.311Z,9.29
2022-10-12T10:33:36.867Z,9.49
2022-10-12T10:38:59.531Z,9.61
2022-10-12T10:44:07.286Z,9.69
2022-10-12T10:49:32.277Z,9.75
2022-10-12T10:55:18.220Z,9.69
2022-10-12T11:00:41.134Z,9.77
2022-10-12T11:06:21.021Z,9.90
2022-10-12T11:11:38.170Z,10.10
2022-10-12T11:16:51.192Z,10.27
2022-10-12T11:22:31.452Z,10.27
2022-10-12T11:28:04.285Z,10.35
2022-10-12T11:33:17.212Z,10.41
2022-10-12T11:39:21.823Z,10.53
2022-10-12T11:45:04.198Z,10.71
2022-10-12T11:50:31.026Z,10.96
2022-10-12T11:56:09.764Z,11.04
2022-10-12T12:01:54.060Z,11.01
2022-10-12T12:08:13.951Z,10.98
2022-10-12T12:13:45.369Z,11.15
2022-10-12T12:19:42.067Z,11.17
2022-10-12T12:25:06.788Z,11.29
2022-10-12T12:30:41.129Z,11.38
2022-10-12T12:35:59.912Z,11.39
2022-10-12T12:41:14.059Z,11.41
2022-10-12T12:53:19.051Z,11.49
2022-10-12T13:13:16.598Z,11.54
2022-10-12T13:18:49.242Z,11.40
2022-10-12T13:24:04.853Z,11.40
2022-10-12T13:29:23.487Z,11.38
2022-10-12T13:34:36.714Z,11.45
2022-10-12T13:39:47.234Z,11.42
2022-10-12T13:44:55.139Z,11.42
2022-10-12T13:50:01.490Z,11.43
2022-10-12T13:55:18.380Z,11.49
2022-10-12T14:00:27.921Z,11.64
2022-10-12T14:05:35.604Z,11.69
2022-10-12T14:10:44.798Z,11.64
2022-10-12T14:15:52.438Z,11.57
2022-10-12T14:21:12.331Z,11.45
2022-10-12T14:26:30.915Z,11.39
2022-10-12T14:31:53.406Z,11.35
2022-10-12T14:37:06.167Z,11.33
2022-10-12T14:42:22.873Z,11.31
2022-10-12T14:47:33.618Z,11.31
2022-10-12T14:52:44.538Z,11.28
2022-10-12T14:57:51.990Z,11.28
2022-10-12T15:03:00.106Z,11.30
2022-10-12T15:08:09.345Z,11.29
2022-10-12T15:13:15.611Z,11.25
2022-10-12T15:18:22.883Z,11.20
2022-10-12T15:23:29.006Z,11.16
2022-10-12T15:28:35.245Z,11.12
2022-10-12T15:33:44.052Z,11.11
2022-10-12T15:38:49.832Z,11.06
2022-10-12T15:43:55.703Z,11.00
2022-10-12T15:49:03.343Z,10.96
2022-10-12T15:54:09.580Z,10.91
2022-10-12T15:59:15.634Z,10.87
2022-10-12T16:04:23.385Z,10.85
2022-10-12T16:09:29.346Z,10.79
2022-10-12T16:14:35.470Z,10.74
2022-10-12T16:19:43.045Z,10.70
2022-10-12T16:24:49.095Z,10.66
2022-10-12T16:29:55.080Z,10.55
2022-10-12T16:35:02.545Z,10.43
2022-10-12T16:40:11.650Z,10.41
2022-10-12T16:45:17.811Z,10.41
2022-10-12T16:50:27.052Z,10.38
2022-10-12T16:55:33.075Z,10.38
2022-10-12T17:00:40.467Z,10.36
2022-10-12T17:05:48.294Z,10.34
2022-10-12T17:10:54.280Z,10.30
2022-10-12T17:16:14.082Z,10.16
2022-10-12T17:21:21.519Z,9.97
2022-10-12T17:26:28.595Z,10.00
2022-10-12T17:31:35.549Z,9.93
2022-10-12T17:36:43.064Z,9.89
2022-10-12T17:41:49.841Z,9.93
2022-10-12T17:46:55.992Z,9.93
2022-10-12T17:52:04.347Z,9.91
2022-10-12T17:57:11.268Z,9.89
2022-10-12T18:02:17.935Z,9.89
2022-10-12T18:07:27.755Z,9.56
2022-10-12T18:12:36.372Z,9.47
2022-10-12T18:17:43.041Z,9.52
2022-10-12T18:22:51.246Z,9.57
2022-10-12T18:27:57.420Z,9.56
2022-10-12T18:33:04.164Z,9.55
2022-10-12T18:38:14.991Z,9.23
2022-10-12T18:43:23.004Z,9.24
2022-10-12T18:48:31.220Z,9.18
2022-10-12T18:53:39.952Z,9.05
2022-10-12T18:58:46.869Z,9.07
2022-10-12T19:03:55.292Z,8.83
2022-10-12T19:09:03.731Z,8.87
2022-10-12T19:14:14.938Z,8.86
2022-10-12T19:19:22.012Z,8.73
2022-10-12T19:24:30.016Z,8.69
2022-10-12T19:29:37.101Z,8.47
2022-10-12T19:34:43.981Z,8.50
2022-10-12T19:39:53.292Z,8.50
2022-10-12T19:45:03.391Z,8.03
2022-10-12T19:50:11.315Z,8.00
2022-10-12T19:55:20.257Z,7.91
2022-10-12T20:00:27.526Z,8.07
2022-10-12T20:05:34.885Z,8.06
2022-10-12T20:10:43.144Z,7.72
2022-10-12T20:15:54.425Z,7.52
2022-10-12T20:21:02.300Z,7.62
2022-10-12T20:26:12.521Z,7.46
2022-10-12T20:31:19.709Z,7.62
2022-10-12T20:36:28.417Z,7.65
2022-10-12T20:41:36.018Z,7.26
2022-10-12T20:46:44.653Z,7.35
2022-10-12T20:51:51.655Z,7.39
2022-10-12T20:57:00.644Z,7.45
2022-10-12T21:02:06.830Z,6.99
2022-10-12T21:07:17.565Z,7.00
2022-10-12T21:12:25.304Z,6.86
2022-10-12T21:17:31.346Z,6.59
2022-10-12T21:22:37.523Z,6.80
2022-10-12T21:27:46.241Z,6.86
2022-10-12T21:32:52.319Z,6.63
2022-10-12T21:37:58.265Z,6.63
2022-10-12T21:43:05.811Z,6.70
2022-10-12T21:48:11.867Z,6.20
2022-10-12T21:53:18.547Z,6.40
2022-10-12T21:58:26.285Z,6.48
2022-10-12T22:03:33.055Z,5.74
2022-10-12T22:08:39.130Z,5.73
2022-10-12T22:13:54.782Z,5.90
2022-10-12T22:19:01.973Z,5.84
2022-10-12T22:24:14.209Z,5.62
2022-10-12T22:29:21.779Z,5.76
2022-10-12T22:34:28.866Z,5.94
2022-10-12T22:39:34.978Z,5.95
2022-10-12T22:44:42.475Z,5.83
2022-10-12T22:49:48.754Z,5.68
2022-10-12T22:54:55.062Z,5.93
2022-10-12T23:00:02.812Z,5.80
2022-10-12T23:05:11.328Z,5.80
2022-10-12T23:10:18.174Z,5.77
2022-10-12T23:15:25.869Z,5.67
2022-10-12T23:20:32.389Z,5.60
2022-10-12T23:25:40.906Z,5.79
2022-10-12T23:30:49.491Z,5.55
2022-10-12T23:36:00.161Z,5.53
2022-10-12T23:41:07.178Z,5.47
2022-10-12T23:46:14.990Z,5.58
2022-10-12T23:51:22.113Z,5.44
2022-10-12T23:56:28.527Z,5.23
